Time;durP1;ratioP1;P1;durP2;ratioP2;P2;SDS_P1;SDS_P2;PMS_P1;PMS_P2;Temp;Humidity;BMP_temperature;BMP_pressure;BME280_temperature;BME280_humidity;BME280_pressure;Samples;Min_cycle;Max_cycle;Signal;HPM_P1;HPM_P2
2023/04/26 00:02:21;;;;;;;;;7.75;7.00;;;;;21.57;35.07;101196.91;5077092;27;45358;-69
2023/04/26 00:04:50;;;;;;;;;10.25;6.75;;;;;21.59;35.64;101210.13;5061453;28;45382;-69
2023/04/26 00:07:15;;;;;;;;;9.50;8.25;;;;;21.55;35.42;101204.16;5078785;27;46746;-69
2023/04/26 00:09:43;;;;;;;;;7.50;7.00;;;;;21.57;35.23;101206.72;5073802;27;74114;-69
2023/04/26 00:12:10;;;;;;;;;8.75;6.75;;;;;21.56;35.33;101208.50;5077784;28;45335;-69
2023/04/26 00:14:36;;;;;;;;;7.00;7.00;;;;;21.54;35.18;101209.59;5076404;27;45536;-69
2023/04/26 00:17:03;;;;;;;;;8.00;6.00;;;;;21.55;34.98;101213.97;5077850;27;50044;-69
2023/04/26 00:19:28;;;;;;;;;8.75;7.00;;;;;21.51;34.89;101207.97;5077288;27;45274;-69
2023/04/26 00:21:53;;;;;;;;;7.00;6.75;;;;;21.51;34.85;101199.97;5077936;28;45685;-69
2023/04/26 00:24:19;;;;;;;;;8.25;7.00;;;;;21.52;35.33;101193.69;5074503;27;64536;-69
2023/04/26 00:26:45;;;;;;;;;9.75;8.75;;;;;21.51;35.15;101191.13;5069531;28;45355;-69
2023/04/26 00:29:10;;;;;;;;;11.00;7.25;;;;;21.50;35.28;101189.44;5072859;27;69694;-69
2023/04/26 00:31:35;;;;;;;;;6.75;6.00;;;;;21.50;35.01;101190.28;5074900;27;45417;-69
2023/04/26 00:34:01;;;;;;;;;10.75;7.25;;;;;21.48;34.83;101181.56;5075131;27;61695;-69
2023/04/26 00:36:26;;;;;;;;;9.75;8.25;;;;;21.48;35.56;101173.56;5080511;27;69557;-69
2023/04/26 00:38:51;;;;;;;;;8.00;6.75;;;;;21.50;35.39;101181.47;5069394;27;45396;-69
2023/04/26 00:41:17;;;;;;;;;9.00;7.25;;;;;21.50;35.23;101189.44;5082358;27;45535;-69
2023/04/26 00:43:42;;;;;;;;;6.75;6.25;;;;;21.47;34.79;101181.66;5074315;27;45294;-69
2023/04/26 00:46:08;;;;;;;;;8.00;7.75;;;;;21.46;34.77;101180.81;5082648;27;46189;-69
2023/04/26 00:48:36;;;;;;;;;7.50;7.00;;;;;21.47;34.92;101171.00;5072598;28;46454;-69
2023/04/26 00:51:01;;;;;;;;;11.25;8.00;;;;;21.43;35.11;101165.00;5074457;27;45405;-69
2023/04/26 00:53:27;;;;;;;;;10.00;8.00;;;;;21.44;35.16;101166.69;5054352;28;45521;-69
2023/04/26 00:55:53;;;;;;;;;11.00;8.50;;;;;21.43;35.19;101168.50;5077014;27;46163;-69
2023/04/26 00:58:18;;;;;;;;;11.25;10.00;;;;;21.43;35.15;101165.00;5076839;27;45849;-69
2023/04/26 01:00:44;;;;;;;;;10.25;8.50;;;;;21.45;35.30;101170.22;5081819;27;45290;-69
2023/04/26 01:03:10;;;;;;;;;11.00;9.00;;;;;21.42;34.89;101163.28;5076503;27;45375;-69
2023/04/26 01:05:37;;;;;;;;;9.00;8.25;;;;;21.41;35.26;101157.09;5075554;28;45297;-69
2023/04/26 01:08:03;;;;;;;;;10.75;8.25;;;;;21.41;35.38;101157.09;5074847;28;45452;-69
2023/04/26 01:10:30;;;;;;;;;11.75;8.75;;;;;21.42;35.04;101155.28;5056417;28;45485;-69
2023/04/26 01:12:56;;;;;;;;;8.50;8.00;;;;;21.39;34.98;101147.53;5069036;27;45664;-69
2023/04/26 01:15:22;;;;;;;;;12.00;9.00;;;;;21.39;35.06;101147.53;5058065;28;47227;-69
2023/04/26 01:17:48;;;;;;;;;9.25;8.00;;;;;21.37;35.12;101144.09;5071772;27;47820;-69
2023/04/26 01:20:13;;;;;;;;;8.25;8.00;;;;;21.37;35.13;101141.41;5077004;27;45468;-69
2023/04/26 01:22:39;;;;;;;;;8.25;8.00;;;;;21.38;35.33;101146.66;5057947;28;45458;-69
2023/04/26 01:25:06;;;;;;;;;9.25;8.25;;;;;21.36;35.37;101143.22;5073216;27;45368;-69
2023/04/26 01:27:32;;;;;;;;;8.75;7.50;;;;;21.37;35.20;101138.75;5081565;27;46043;-69
2023/04/26 01:29:57;;;;;;;;;11.50;7.75;;;;;21.37;34.92;101133.44;5076128;27;52998;-69
2023/04/26 01:32:22;;;;;;;;;11.75;8.50;;;;;21.35;34.96;101124.69;5084257;27;55096;-70
2023/04/26 01:34:47;;;;;;;;;9.75;8.00;;;;;21.32;34.85;101119.56;5078890;27;70965;-69
2023/04/26 01:37:13;;;;;;;;;9.00;9.00;;;;;21.32;34.87;101114.25;5081385;28;63755;-70
2023/04/26 01:39:38;;;;;;;;;14.50;8.50;;;;;21.32;34.77;101122.22;5072693;28;61731;-70
2023/04/26 01:42:04;;;;;;;;;5.75;5.75;;;;;21.34;35.17;101134.50;5066625;27;67821;-69
2023/04/26 01:44:29;;;;;;;;;10.00;7.75;;;;;21.32;34.98;101131.09;5078055;27;47232;-69
2023/04/26 01:46:55;;;;;;;;;8.75;7.00;;;;;21.30;34.87;101122.34;5080638;27;45350;-69
2023/04/26 01:49:20;;;;;;;;;7.75;5.75;;;;;21.32;34.87;101133.75;5077493;28;45430;-69
2023/04/26 01:51:46;;;;;;;;;6.25;6.25;;;;;21.29;35.02;101125.13;5083060;27;59486;-69
2023/04/26 01:54:11;;;;;;;;;7.25;6.25;;;;;21.28;34.79;101126.91;5079875;27;49075;-69
2023/04/26 01:56:36;;;;;;;;;8.75;7.00;;;;;21.32;35.15;101138.19;5056900;28;45311;-69
2023/04/26 01:59:02;;;;;;;;;9.50;7.75;;;;;21.31;34.91;101136.50;5070303;28;61743;-69
2023/04/26 02:01:27;;;;;;;;;9.75;7.00;;;;;21.29;34.75;101138.44;5086907;27;57913;-69
2023/04/26 02:03:52;;;;;;;;;7.00;6.75;;;;;21.27;34.75;101122.56;5076117;28;45434;-69
2023/04/26 02:06:18;;;;;;;;;7.00;5.75;;;;;21.29;35.03;101122.47;5072700;28;60657;-69
2023/04/26 02:08:44;;;;;;;;;8.50;7.00;;;;;21.28;35.10;101116.25;5078031;28;45417;-69
2023/04/26 02:11:10;;;;;;;;;7.50;5.00;;;;;21.27;34.67;101106.56;5089749;27;45532;-69
2023/04/26 02:13:36;;;;;;;;;7.75;6.50;;;;;21.25;35.11;101097.84;5083156;27;46177;-69
2023/04/26 02:16:02;;;;;;;;;7.25;5.00;;;;;21.26;34.73;101096.03;5080339;27;45354;-69
2023/04/26 02:18:28;;;;;;;;;7.50;6.00;;;;;21.26;34.96;101104.84;5073442;27;46246;-69
2023/04/26 02:20:54;;;;;;;;;8.00;6.00;;;;;21.24;34.96;101114.75;5077742;27;45468;-69
2023/04/26 02:23:19;;;;;;;;;9.75;5.75;;;;;21.24;35.06;101109.44;5077049;27;45496;-69
2023/04/26 02:25:48;;;;;;;;;6.50;5.25;;;;;21.24;34.95;101118.25;5080297;27;52503;-69
2023/04/26 02:28:15;;;;;;;;;7.00;7.00;;;;;21.26;35.14;101125.31;5073592;28;45461;-69
2023/04/26 02:30:40;;;;;;;;;6.00;6.00;;;;;21.23;34.82;101129.88;5066807;27;45468;-69
2023/04/26 02:33:06;;;;;;;;;7.75;6.00;;;;;21.23;35.08;101121.06;5082151;27;48286;-68
2023/04/26 02:35:31;;;;;;;;;6.25;5.00;;;;;21.23;35.17;101116.56;5071659;27;48247;-68
2023/04/26 02:37:57;;;;;;;;;6.75;6.00;;;;;21.22;34.87;101120.19;5075001;28;45536;-68
2023/04/26 02:40:23;;;;;;;;;6.75;5.50;;;;;21.22;34.68;101127.31;5077674;28;46055;-69
2023/04/26 02:42:48;;;;;;;;;6.00;6.00;;;;;21.21;34.78;101117.63;5081260;27;45659;-69
2023/04/26 02:45:13;;;;;;;;;6.75;5.75;;;;;21.21;35.21;101112.28;5078348;27;68418;-69
2023/04/26 02:47:39;;;;;;;;;8.00;6.00;;;;;21.19;34.97;101107.06;5078759;27;45338;-69
2023/04/26 02:50:08;;;;;;;;;5.50;4.50;;;;;21.20;35.13;101105.28;5077081;28;68701;-69
2023/04/26 02:52:34;;;;;;;;;7.75;5.25;;;;;21.21;34.73;101105.19;5077221;28;47331;-69
2023/04/26 02:55:01;;;;;;;;;5.00;4.00;;;;;21.18;34.74;101104.53;5075615;27;45315;-69
2023/04/26 02:57:26;;;;;;;;;4.00;4.00;;;;;21.17;34.79;101098.34;5077506;28;45378;-69
2023/04/26 02:59:51;;;;;;;;;5.25;5.25;;;;;21.17;34.87;101097.50;5093169;27;45284;-69
2023/04/26 03:02:17;;;;;;;;;6.00;6.00;;;;;21.17;34.82;101102.81;5077330;28;57538;-69
2023/04/26 03:04:42;;;;;;;;;5.75;4.75;;;;;21.17;35.03;101102.81;5072781;28;45708;-69
2023/04/26 03:07:08;;;;;;;;;8.50;5.25;;;;;21.16;34.94;101107.28;5073151;27;45498;-69
2023/04/26 03:09:33;;;;;;;;;8.00;7.00;;;;;21.16;34.58;101101.09;5071715;27;45445;-69
2023/04/26 03:11:59;;;;;;;;;7.75;7.00;;;;;21.16;35.08;101103.75;5067870;27;45440;-69
2023/04/26 03:14:25;;;;;;;;;5.00;5.00;;;;;21.16;34.63;101101.09;5073715;27;45426;-69
2023/04/26 03:16:51;;;;;;;;;5.75;5.75;;;;;21.15;34.66;101102.06;5059220;27;45465;-69
2023/04/26 03:19:16;;;;;;;;;5.50;5.00;;;;;21.14;34.59;101095.03;5071847;27;45426;-69
2023/04/26 03:21:41;;;;;;;;;7.25;5.00;;;;;21.15;35.04;101094.06;5078955;27;74547;-69
2023/04/26 03:24:07;;;;;;;;;5.25;4.00;;;;;21.15;34.63;101092.25;5051666;28;70956;-69
2023/04/26 03:26:32;;;;;;;;;4.00;4.00;;;;;21.14;34.86;101093.22;5078312;27;52344;-69
2023/04/26 03:28:58;;;;;;;;;6.25;4.50;;;;;21.12;34.88;101097.78;5073481;27;62573;-69
2023/04/26 03:31:23;;;;;;;;;6.75;4.00;;;;;21.15;34.95;101099.41;5080901;27;45422;-69
2023/04/26 03:33:48;;;;;;;;;4.50;4.50;;;;;21.13;35.08;101098.66;5077264;27;68213;-69
2023/04/26 03:36:14;;;;;;;;;5.00;4.75;;;;;21.08;34.98;101092.78;5078060;27;45401;-69
2023/04/26 03:38:39;;;;;;;;;4.75;4.75;;;;;21.12;34.63;101103.09;5077565;27;63094;-69
2023/04/26 03:41:04;;;;;;;;;5.75;5.75;;;;;21.12;34.97;101103.09;5077489;27;45403;-70
2023/04/26 03:43:31;;;;;;;;;3.50;3.50;;;;;21.10;34.84;101102.34;5056363;27;45669;-69
2023/04/26 03:45:56;;;;;;;;;9.00;6.00;;;;;21.09;34.82;101098.00;5084223;27;45271;-69
2023/04/26 03:48:21;;;;;;;;;6.25;4.75;;;;;21.09;34.73;101091.81;5053319;28;48535;-69
2023/04/26 03:50:47;;;;;;;;;5.75;4.00;;;;;21.09;34.58;101094.47;5078047;27;59313;-70
2023/04/26 03:53:12;;;;;;;;;4.00;4.00;;;;;21.10;34.92;101091.72;5075445;27;71890;-69
2023/04/26 03:55:37;;;;;;;;;4.00;4.00;;;;;21.10;34.76;101096.19;5079655;27;56997;-70
2023/04/26 03:58:06;;;;;;;;;5.75;5.00;;;;;21.10;34.74;101094.38;5077033;28;70879;-70
2023/04/26 04:00:38;;;;;;;;;4.75;4.75;;;;;21.04;34.92;101089.47;5054819;28;47669;-70
2023/04/26 04:03:03;;;;;;;;;8.25;4.50;;;;;21.10;34.56;101088.19;5061070;28;45897;-69
2023/04/26 04:05:29;;;;;;;;;5.00;5.00;;;;;21.08;34.76;101084.78;5084038;27;45559;-68
2023/04/26 04:07:55;;;;;;;;;6.50;3.00;;;;;21.08;34.55;101087.44;5079994;27;45343;-69
2023/04/26 04:10:22;;;;;;;;;4.75;4.00;;;;;21.05;34.61;101086.72;5080714;27;45509;-69
2023/04/26 04:12:47;;;;;;;;;5.25;5.25;;;;;21.07;34.44;101088.41;5075809;28;45935;-69
2023/04/26 04:15:13;;;;;;;;;5.00;4.00;;;;;21.03;34.58;101091.28;5077785;27;45465;-69
2023/04/26 04:17:38;;;;;;;;;4.00;4.00;;;;;21.03;34.95;101093.06;5070813;27;67580;-69
2023/04/26 04:20:06;;;;;;;;;6.25;5.75;;;;;21.03;34.72;101096.59;5076846;27;51394;-69
2023/04/26 04:22:31;;;;;;;;;4.50;4.50;;;;;21.04;34.52;101095.63;5075668;27;45417;-69
2023/04/26 04:24:57;;;;;;;;;5.00;4.00;;;;;21.05;34.46;101096.47;5061869;27;45517;-70
2023/04/26 04:27:22;;;;;;;;;6.00;5.00;;;;;21.00;34.97;101082.63;5082489;27;45254;-70
2023/04/26 04:29:47;;;;;;;;;3.00;3.00;;;;;21.04;34.48;101092.97;5077166;27;45422;-70
2023/04/26 04:32:14;;;;;;;;;4.25;4.25;;;;;21.02;34.73;101092.22;5079888;27;60732;-69
2023/04/26 04:34:40;;;;;;;;;4.50;4.50;;;;;21.04;34.75;101098.28;5079110;27;46122;-69
2023/04/26 04:37:06;;;;;;;;;8.00;4.00;;;;;21.02;34.46;101091.38;5073616;28;45306;-69
2023/04/26 04:39:31;;;;;;;;;3.00;3.00;;;;;21.00;34.78;101091.47;5058564;28;47446;-69
2023/04/26 04:41:57;;;;;;;;;4.50;2.50;;;;;21.02;34.67;101096.69;5059469;28;65384;-69
2023/04/26 04:44:23;;;;;;;;;5.50;4.00;;;;;21.01;34.84;101098.47;5053905;28;45262;-69
2023/04/26 04:46:48;;;;;;;;;4.00;4.00;;;;;21.00;34.93;101087.94;5077630;27;45743;-70
2023/04/26 04:49:14;;;;;;;;;3.50;3.00;;;;;21.00;34.63;101091.47;5073042;27;47665;-70
2023/04/26 04:51:40;;;;;;;;;6.25;5.00;;;;;21.01;34.67;101094.97;5075936;28;45458;-69
2023/04/26 04:54:09;;;;;;;;;4.00;4.00;;;;;21.01;34.79;101094.97;5072785;28;46287;-69
2023/04/26 04:56:35;;;;;;;;;6.00;4.25;;;;;21.00;34.91;101090.59;5077270;27;45288;-69
2023/04/26 04:59:00;;;;;;;;;7.00;4.50;;;;;21.00;34.51;101096.78;5078524;27;68675;-69
2023/04/26 05:01:25;;;;;;;;;4.00;4.00;;;;;20.98;35.13;101090.72;5080636;28;73470;-69
2023/04/26 05:03:51;;;;;;;;;4.25;4.00;;;;;21.00;34.43;101080.81;5075959;27;60882;-69
2023/04/26 05:06:16;;;;;;;;;5.00;4.50;;;;;20.95;34.60;101074.09;5080866;27;67877;-69
2023/04/26 05:08:41;;;;;;;;;4.25;3.25;;;;;20.99;34.78;101086.25;5078405;27;47034;-70
2023/04/26 05:11:07;;;;;;;;;5.25;5.00;;;;;20.99;34.55;101086.25;5064002;28;45670;-70
2023/04/26 05:13:32;;;;;;;;;4.25;4.25;;;;;20.95;34.72;101076.75;5077711;27;55365;-69
2023/04/26 05:15:57;;;;;;;;;3.25;3.00;;;;;20.98;34.67;101082.75;5079991;27;70939;-69
2023/04/26 05:18:23;;;;;;;;;6.75;3.00;;;;;20.98;34.49;101088.06;5074454;27;46397;-70
2023/04/26 05:20:48;;;;;;;;;5.00;4.00;;;;;20.99;35.02;101092.41;5078825;27;45353;-69
2023/04/26 05:23:14;;;;;;;;;4.50;3.25;;;;;20.97;35.08;101091.66;5079555;27;45500;-69
2023/04/26 05:25:39;;;;;;;;;3.50;3.00;;;;;21.01;34.81;101097.63;5077594;27;45413;-68
2023/04/26 05:28:06;;;;;;;;;3.50;3.00;;;;;20.99;34.69;101104.88;5073809;27;45378;-69
2023/04/26 05:30:32;;;;;;;;;3.00;3.00;;;;;21.02;34.55;101099.34;5078920;27;45335;-70
2023/04/26 05:32:57;;;;;;;;;3.00;3.00;;;;;21.02;34.93;101107.34;5071591;28;62569;-68
2023/04/26 05:35:22;;;;;;;;;7.75;6.25;;;;;21.02;34.93;101110.00;5075888;27;67238;-70
2023/04/26 05:37:48;;;;;;;;;7.00;6.00;;;;;21.02;34.24;101107.34;5078316;27;47378;-69
2023/04/26 05:40:13;;;;;;;;;8.50;6.75;;;;;21.03;33.94;101106.38;5077964;27;65515;-69
2023/04/26 05:42:38;;;;;;;;;7.50;6.00;;;;;21.04;34.30;101110.75;5077619;28;59277;-72
2023/04/26 05:45:04;;;;;;;;;6.75;5.75;;;;;21.02;33.95;101107.34;5081714;27;56416;-74
2023/04/26 05:47:29;;;;;;;;;11.50;6.75;;;;;20.99;33.76;101095.06;5063541;28;46773;-71
2023/04/26 05:49:55;;;;;;;;;9.25;7.00;;;;;20.98;33.77;101105.81;5082970;27;70061;-71
2023/04/26 05:52:20;;;;;;;;;9.00;7.00;;;;;21.01;34.07;101111.78;5082945;27;45431;-72
2023/04/26 05:54:45;;;;;;;;;6.00;5.75;;;;;21.01;33.72;101108.28;5076585;27;45547;-71
2023/04/26 05:57:11;;;;;;;;;5.50;5.25;;;;;20.99;33.62;101095.06;5057682;28;67912;-72
2023/04/26 05:59:36;;;;;;;;;5.75;5.25;;;;;21.01;33.68;101103.81;5075107;27;46884;-72
2023/04/26 06:02:03;;;;;;;;;7.00;5.00;;;;;21.03;33.33;101109.91;5078617;27;65071;-71
2023/04/26 06:04:29;;;;;;;;;8.00;6.00;;;;;21.04;33.40;101097.44;5079955;27;45571;-71
2023/04/26 06:06:54;;;;;;;;;8.25;6.75;;;;;21.02;33.53;101097.53;5062495;28;48398;-72
2023/04/26 06:09:19;;;;;;;;;10.75;6.50;;;;;21.04;33.42;101108.94;5075479;27;45494;-78
2023/04/26 06:11:45;;;;;;;;;11.25;7.00;;;;;21.08;32.99;101122.03;5079122;27;65916;-71
2023/04/26 06:14:11;;;;;;;;;11.00;8.75;;;;;21.08;33.02;101120.22;5078691;28;45327;-74
2023/04/26 06:16:36;;;;;;;;;10.00;7.75;;;;;21.04;32.30;101119.59;5080701;28;45623;-76
2023/04/26 06:19:01;;;;;;;;;10.75;6.50;;;;;21.05;32.90;101115.09;5079260;27;59810;-72
2023/04/26 06:21:26;;;;;;;;;9.50;5.00;;;;;20.98;32.73;101104.03;5080562;27;53351;-72
2023/04/26 06:23:52;;;;;;;;;6.00;4.75;;;;;21.00;33.11;101106.56;5072102;27;48585;-72
2023/04/26 06:26:17;;;;;;;;;6.75;4.50;;;;;21.04;33.19;101105.44;5077077;27;65894;-78
2023/04/26 06:28:42;;;;;;;;;8.25;6.00;;;;;21.04;33.69;101108.09;5075749;28;72439;-73
2023/04/26 06:31:08;;;;;;;;;6.00;5.00;;;;;21.04;33.89;101100.94;5080464;27;65521;-75
2023/04/26 06:33:33;;;;;;;;;4.25;4.00;;;;;21.12;34.05;101110.25;5075979;27;45277;-74
2023/04/26 06:35:59;;;;;;;;;4.00;4.00;;;;;21.10;33.74;101104.16;5079782;27;46530;-73
2023/04/26 06:38:24;;;;;;;;;5.00;5.00;;;;;21.13;34.51;101107.47;5077627;27;45491;-70
2023/04/26 06:40:49;;;;;;;;;7.00;4.00;;;;;21.16;34.58;101106.41;5074034;27;45657;-75
2023/04/26 06:43:15;;;;;;;;;6.00;5.00;;;;;21.15;34.40;101100.25;5084658;27;45380;-70
2023/04/26 06:45:41;;;;;;;;;5.00;3.50;;;;;21.22;34.54;101106.88;5068738;27;58702;-68
2023/04/26 06:48:07;;;;;;;;;4.00;3.75;;;;;21.20;34.84;101107.94;5084494;27;45382;-69
2023/04/26 06:50:32;;;;;;;;;6.50;4.00;;;;;21.26;34.87;101110.19;5076103;27;45391;-70
2023/04/26 06:52:57;;;;;;;;;7.00;4.25;;;;;21.30;35.17;101108.16;5081113;27;48017;-71
2023/04/26 06:55:23;;;;;;;;;6.75;4.00;;;;;21.31;34.69;101113.41;5079774;27;45503;-72
2023/04/26 06:57:49;;;;;;;;;4.25;4.00;;;;;21.32;34.80;101111.56;5071365;27;45689;-69
2023/04/26 07:00:15;;;;;;;;;6.25;4.25;;;;;21.37;34.83;101118.34;5078681;27;45482;-71
2023/04/26 07:02:40;;;;;;;;;6.25;3.25;;;;;21.40;35.09;101120.75;5078300;27;45488;-67
2023/04/26 07:05:06;;;;;;;;;3.75;3.75;;;;;21.43;35.38;101125.06;5076398;27;45764;-67
2023/04/26 07:07:31;;;;;;;;;5.00;5.00;;;;;21.45;35.15;101123.13;5082444;27;45252;-67
2023/04/26 07:09:57;;;;;;;;;2.25;2.25;;;;;21.47;35.20;101113.25;5073626;27;45267;-67
2023/04/26 07:12:22;;;;;;;;;5.25;4.00;;;;;21.51;35.51;101122.75;5080045;28;45473;-67
2023/04/26 07:14:47;;;;;;;;;3.00;3.00;;;;;21.57;35.77;101121.50;5074517;27;53991;-76
2023/04/26 07:17:13;;;;;;;;;3.00;3.00;;;;;21.58;35.71;101116.06;5058503;28;45401;-74
2023/04/26 07:19:38;;;;;;;;;5.75;3.25;;;;;21.65;35.58;101123.63;5072573;27;66278;-78
2023/04/26 07:22:04;;;;;;;;;3.75;3.75;;;;;21.67;35.54;101127.03;5072708;27;46714;-79
2023/04/26 07:24:29;;;;;;;;;6.25;4.00;;;;;21.70;35.97;101129.50;5057525;28;46321;-73
2023/04/26 07:26:55;;;;;;;;;5.50;4.00;;;;;21.77;35.96;101128.13;5078805;27;45464;-77
2023/04/26 07:29:21;;;;;;;;;3.50;3.00;;;;;21.82;35.80;101127.84;5075108;27;45537;-75
2023/04/26 07:31:46;;;;;;;;;3.25;2.00;;;;;21.83;35.84;101118.88;5080597;27;45472;-73
2023/04/26 07:34:15;;;;;;;;;5.00;2.75;;;;;21.88;35.86;101112.25;5052819;28;47200;-72
2023/04/26 07:36:40;;;;;;;;;5.25;3.50;;;;;21.92;36.13;101113.78;5075369;27;45274;-67
2023/04/26 07:39:08;;;;;;;;;6.25;3.25;;;;;21.95;35.74;101118.03;5079363;27;53558;-73
2023/04/26 07:41:33;;;;;;;;;3.50;2.75;;;;;21.98;36.23;101113.34;5071329;27;45304;-67
2023/04/26 07:43:59;;;;;;;;;3.25;1.00;;;;;22.04;35.65;101114.72;5072546;27;47006;-67
2023/04/26 07:46:25;;;;;;;;;3.75;3.25;;;;;22.06;35.97;101101.28;5058390;28;75434;-74
2023/04/26 07:48:50;;;;;;;;;3.75;2.50;;;;;22.09;35.95;101096.59;5078564;27;45362;-68
2023/04/26 07:51:15;;;;;;;;;5.50;3.75;;;;;22.11;36.33;101093.84;5079630;27;45445;-72
2023/04/26 07:53:41;;;;;;;;;3.00;3.00;;;;;22.14;35.97;101093.63;5077687;27;46366;-72
2023/04/26 07:56:07;;;;;;;;;5.75;2.75;;;;;22.16;35.92;101092.53;5060646;28;45383;-74
2023/04/26 07:58:34;;;;;;;;;2.75;2.00;;;;;22.21;36.15;101099.38;5073556;27;45488;-74
2023/04/26 08:00:59;;;;;;;;;2.75;1.50;;;;;22.27;36.20;101098.97;5080275;27;45374;-72
2023/04/26 08:03:26;;;;;;;;;5.50;2.25;;;;;22.23;36.33;101086.78;5049573;28;47726;-73
2023/04/26 08:05:52;;;;;;;;;5.25;4.00;;;;;22.30;36.10;101096.09;5077175;27;45838;-73
2023/04/26 08:08:18;;;;;;;;;2.25;2.25;;;;;22.36;35.67;101104.53;5074740;28;45310;-71
2023/04/26 08:10:43;;;;;;;;;5.00;3.00;;;;;22.37;36.00;101098.22;5076714;27;45304;-69
2023/04/26 08:13:08;;;;;;;;;6.50;2.25;;;;;22.40;35.65;101102.50;5074174;27;77295;-69
2023/04/26 08:15:34;;;;;;;;;3.75;2.25;;;;;22.42;35.62;101102.38;5081248;27;45402;-70
2023/04/26 08:17:59;;;;;;;;;3.00;2.50;;;;;22.44;35.49;101100.47;5059630;28;45508;-67
2023/04/26 08:20:24;;;;;;;;;3.25;2.25;;;;;22.45;35.41;101102.13;5081762;27;63020;-79
2023/04/26 08:22:55;;;;;;;;;2.75;2.25;;;;;22.45;35.68;101094.13;5060478;28;47784;-75
2023/04/26 08:25:20;;;;;;;;;4.00;3.75;;;;;22.45;35.66;101089.69;5058040;28;45255;-67
2023/04/26 08:27:46;;;;;;;;;4.25;2.00;;;;;22.54;35.44;101101.47;5075316;27;45199;-68
2023/04/26 08:30:11;;;;;;;;;4.75;2.25;;;;;22.52;35.23;101095.41;5076323;27;45452;-70
2023/04/26 08:32:37;;;;;;;;;2.25;2.25;;;;;22.54;35.04;101090.81;5073593;27;46298;-69
2023/04/26 08:35:02;;;;;;;;;3.00;3.00;;;;;22.55;35.17;101082.69;5066554;27;45422;-69
2023/04/26 08:37:28;;;;;;;;;3.75;3.75;;;;;22.58;35.40;101081.66;5060953;28;45177;-67
2023/04/26 08:39:53;;;;;;;;;5.00;2.75;;;;;22.59;35.36;101086.00;5078555;27;45482;-71
2023/04/26 08:42:19;;;;;;;;;3.25;2.75;;;;;22.54;34.95;101077.47;5069641;28;54630;-66
2023/04/26 08:44:45;;;;;;;;;3.75;2.00;;;;;22.60;34.83;101090.38;5057867;28;45492;-67
2023/04/26 08:47:36;;;;;;;;;2.00;2.00;;;;;22.62;34.93;101088.44;5075531;28;45737;-68
2023/04/26 08:50:03;;;;;;;;;1.50;1.50;;;;;22.62;35.21;101083.13;5087975;27;45434;-67
2023/04/26 08:52:30;;;;;;;;;3.25;2.00;;;;;22.65;35.68;101084.72;5073067;28;45655;-66
2023/04/26 08:54:56;;;;;;;;;2.25;2.25;;;;;22.63;35.06;101074.16;5070705;28;45382;-66
2023/04/26 08:57:23;;;;;;;;;5.50;3.00;;;;;22.65;35.53;101085.56;5074715;28;45363;-66
2023/04/26 08:59:49;;;;;;;;;2.50;2.50;;;;;22.70;35.11;101087.88;5078636;27;47010;-67
2023/04/26 09:02:17;;;;;;;;;2.00;2.00;;;;;22.70;35.70;101095.88;5060860;28;48193;-68
2023/04/26 09:04:44;;;;;;;;;3.25;2.25;;;;;22.68;35.34;101089.81;5061764;27;45378;-75
2023/04/26 09:07:15;;;;;;;;;2.75;1.25;;;;;22.70;35.25;101094.09;5078395;28;45466;-70
2023/04/26 09:09:41;;;;;;;;;7.00;3.00;;;;;22.70;35.26;101085.22;5092759;27;45471;-67
2023/04/26 09:12:07;;;;;;;;;4.75;2.00;;;;;22.74;35.36;101086.72;5078195;27;45387;-67
2023/04/26 09:14:32;;;;;;;;;3.25;3.00;;;;;22.74;34.89;101076.03;5071435;27;59505;-71
2023/04/26 09:16:57;;;;;;;;;6.00;4.75;;;;;22.76;35.40;101082.13;5055035;28;45348;-71
2023/04/26 09:19:41;;;;;;;;;3.00;2.00;;;;;22.74;35.33;101079.56;5078298;27;45629;-71
2023/04/26 09:22:07;;;;;;;;;4.25;4.25;;;;;22.78;34.95;101082.84;5085248;27;46492;-71
2023/04/26 09:24:47;;;;;;;;;2.75;2.50;;;;;22.79;34.65;101079.25;5077142;27;45699;-68
2023/04/26 09:27:12;;;;;;;;;3.00;1.75;;;;;22.76;35.05;101074.13;5073397;28;45411;-66
2023/04/26 09:29:37;;;;;;;;;1.50;1.50;;;;;22.78;35.08;101074.84;5078938;27;45513;-66
2023/04/26 09:32:03;;;;;;;;;2.25;1.25;;;;;22.76;34.92;101074.13;5078292;27;50932;-67
2023/04/26 09:34:29;;;;;;;;;3.00;2.25;;;;;22.79;34.80;101078.34;5071428;27;45339;-77
2023/04/26 09:36:56;;;;;;;;;3.25;3.25;;;;;22.80;34.96;101083.59;5077876;27;45249;-68
2023/04/26 09:39:39;;;;;;;;;5.00;3.75;;;;;22.80;34.76;101078.25;5078012;27;45473;-67
2023/04/26 09:42:08;;;;;;;;;4.00;2.25;;;;;22.78;34.42;101074.84;5065214;28;46428;-65
2023/04/26 09:44:34;;;;;;;;;6.00;2.75;;;;;22.79;34.43;101079.25;5074725;27;45781;-65
2023/04/26 09:47:10;;;;;;;;;4.00;1.00;;;;;22.81;34.87;101071.13;5057137;28;45435;-66
2023/04/26 09:49:47;;;;;;;;;2.00;2.00;;;;;22.82;34.81;101070.13;5066742;27;45564;-65
2023/04/26 09:52:13;;;;;;;;;2.50;2.25;;;;;22.79;34.35;101073.03;5083535;27;45566;-65
2023/04/26 09:54:51;;;;;;;;;4.25;2.25;;;;;22.81;34.21;101068.44;5075438;28;45776;-67
2023/04/26 09:57:18;;;;;;;;;3.00;2.00;;;;;22.79;34.32;101059.69;5077565;27;45310;-67
2023/04/26 09:59:51;;;;;;;;;3.00;3.00;;;;;22.80;34.33;101061.41;5082164;27;45282;-76
2023/04/26 10:02:23;;;;;;;;;6.00;3.50;;;;;22.81;34.40;101060.44;5078548;27;45650;-68
2023/04/26 10:04:50;;;;;;;;;2.75;2.25;;;;;22.80;34.65;101059.56;5076695;27;45861;-67
2023/04/26 10:07:17;;;;;;;;;4.25;2.25;;;;;22.80;34.11;101056.06;5082014;27;45240;-66
2023/04/26 10:09:43;;;;;;;;;5.25;3.00;;;;;22.81;34.23;101060.44;5054544;28;45414;-67
2023/04/26 10:12:14;;;;;;;;;3.50;1.50;;;;;22.78;34.12;101047.31;5079834;27;45399;-67
2023/04/26 10:14:40;;;;;;;;;2.25;2.25;;;;;22.78;34.24;101048.16;5073756;27;45303;-67
2023/04/26 10:17:06;;;;;;;;;4.25;1.75;;;;;22.78;34.42;101045.50;5063412;27;45325;-81
2023/04/26 10:19:33;;;;;;;;;2.75;2.75;;;;;22.78;34.57;101044.66;5077243;27;46034;-82
2023/04/26 10:22:03;;;;;;;;;2.50;2.50;;;;;22.80;34.45;101030.22;5081787;27;45395;-77
2023/04/26 10:24:29;;;;;;;;;4.25;3.50;;;;;22.80;34.61;101038.22;5078100;27;45936;-84
2023/04/26 10:26:58;;;;;;;;;3.25;2.25;;;;;22.84;34.68;101036.19;5073223;27;45712;-84
2023/04/26 10:29:24;;;;;;;;;1.25;1.25;;;;;22.84;34.52;101046.84;5081615;27;45948;-83
2023/04/26 10:32:05;;;;;;;;;3.00;3.00;;;;;22.87;35.20;101046.63;5061324;28;48281;-69
2023/04/26 10:34:35;;;;;;;;;3.75;3.25;;;;;22.86;34.95;101037.78;5095561;27;45222;-70
2023/04/26 10:37:15;;;;;;;;;2.50;2.25;;;;;22.88;34.48;101038.53;5076832;27;45245;-72
2023/04/26 10:39:41;;;;;;;;;3.75;2.00;;;;;22.90;34.65;101036.59;5092042;27;45649;-70
2023/04/26 10:42:31;;;;;;;;;2.25;1.50;;;;;22.89;34.42;101024.19;5080337;27;46510;-67
2023/04/26 10:44:57;;;;;;;;;3.25;1.75;;;;;22.93;34.69;101032.84;5075693;27;45342;-68
2023/04/26 10:47:27;;;;;;;;;1.00;1.00;;;;;22.93;34.69;101032.84;5078766;28;45415;-67
2023/04/26 10:50:00;;;;;;;;;6.75;3.00;;;;;22.92;34.87;101025.81;5079570;27;45431;-67
2023/04/26 10:52:26;;;;;;;;;3.25;1.25;;;;;22.92;34.96;101026.63;5081492;27;46330;-67
2023/04/26 10:54:56;;;;;;;;;6.25;3.00;;;;;22.89;34.41;101018.84;5073131;27;45209;-67
2023/04/26 10:57:24;;;;;;;;;3.25;3.00;;;;;22.93;34.85;101025.69;5080208;28;45420;-67
2023/04/26 11:00:09;;;;;;;;;3.25;3.25;;;;;22.94;34.54;101027.38;5080727;27;46128;-67
2023/04/26 11:02:55;;;;;;;;;3.50;1.75;;;;;22.92;34.39;101025.81;5071376;27;45557;-68
2023/04/26 11:05:41;;;;;;;;;2.25;2.25;;;;;22.95;34.38;101022.91;5068060;27;45309;-69
2023/04/26 11:08:12;;;;;;;;;3.00;2.00;;;;;22.95;34.27;101022.91;5065806;28;45394;-68
2023/04/26 11:10:38;;;;;;;;;7.75;7.75;;;;;22.93;34.65;101014.16;5074412;27;45793;-68
2023/04/26 11:13:03;;;;;;;;;9.50;9.50;;;;;22.94;34.90;101010.53;5070156;28;54678;-68
2023/04/26 11:15:32;;;;;;;;;25.75;23.00;;;;;22.93;34.87;101008.84;5072595;28;45370;-67
2023/04/26 11:17:57;;;;;;;;;42.00;30.25;;;;;22.92;35.08;101013.28;5068444;27;45296;-68
2023/04/26 11:20:30;;;;;;;;;50.25;41.00;;;;;22.92;35.04;101013.28;5058780;28;45339;-68
2023/04/26 11:22:56;;;;;;;;;55.75;44.50;;;;;22.94;35.25;101013.19;5072652;28;46080;-68